sensor_id;sensor_type;location;lat;lon;timestamp;pressure;altitude;pressure_sealevel;temperature;humidity
76122;BME280;64853;53.200;6.080;2023-01-30T00:02:52;101278.13;;;19.24;35.74
76122;BME280;64853;53.200;6.080;2023-01-30T00:07:45;101263.50;;;19.23;35.89
76122;BME280;64853;53.200;6.080;2023-01-30T00:12:37;101254.97;;;19.20;35.57
76122;BME280;64853;53.200;6.080;2023-01-30T00:17:29;101237.00;;;19.17;35.57
76122;BME280;64853;53.200;6.080;2023-01-30T00:22:21;101227.34;;;19.15;35.68
76122;BME280;64853;53.200;6.080;2023-01-30T00:27:12;101225.72;;;19.14;35.89
76122;BME280;64853;53.200;6.080;2023-01-30T00:32:04;101214.09;;;19.11;35.88
76122;BME280;64853;53.200;6.080;2023-01-30T00:36:57;101206.38;;;19.08;36.01
76122;BME280;64853;53.200;6.080;2023-01-30T00:41:48;101194.81;;;19.06;35.67
76122;BME280;64853;53.200;6.080;2023-01-30T00:46:58;101192.91;;;19.02;35.81
76122;BME280;64853;53.200;6.080;2023-01-30T00:51:56;101193.19;;;19.00;35.49
76122;BME280;64853;53.200;6.080;2023-01-30T00:56:48;101189.91;;;18.98;35.55
76122;BME280;64853;53.200;6.080;2023-01-30T01:01:40;101161.81;;;18.86;35.95
76122;BME280;64853;53.200;6.080;2023-01-30T01:06:31;101166.19;;;18.92;35.60
76122;BME280;64853;53.200;6.080;2023-01-30T01:11:24;101171.19;;;18.90;36.00
76122;BME280;64853;53.200;6.080;2023-01-30T01:16:16;101162.38;;;18.88;35.80
76122;BME280;64853;53.200;6.080;2023-01-30T01:21:07;101159.88;;;18.86;36.04
76122;BME280;64853;53.200;6.080;2023-01-30T01:26:00;101177.84;;;18.84;36.05
76122;BME280;64853;53.200;6.080;2023-01-30T01:30:53;101157.97;;;18.82;35.93
76122;BME280;64853;53.200;6.080;2023-01-30T01:35:44;101150.78;;;18.81;36.00
76122;BME280;64853;53.200;6.080;2023-01-30T01:40:36;101151.34;;;18.78;35.72
76122;BME280;64853;53.200;6.080;2023-01-30T01:45:48;101172.88;;;18.75;35.65
76122;BME280;64853;53.200;6.080;2023-01-30T01:50:45;101138.38;;;18.73;36.03
76122;BME280;64853;53.200;6.080;2023-01-30T01:55:40;101141.44;;;18.71;35.98
76122;BME280;64853;53.200;6.080;2023-01-30T02:00:33;101145.59;;;18.69;36.21
76122;BME280;64853;53.200;6.080;2023-01-30T02:05:29;101142.28;;;18.67;36.09
76122;BME280;64853;53.200;6.080;2023-01-30T02:10:25;101131.53;;;18.65;36.15
76122;BME280;64853;53.200;6.080;2023-01-30T02:15:18;101134.84;;;18.62;36.08
76122;BME280;64853;53.200;6.080;2023-01-30T02:20:17;101136.81;;;18.62;35.97
76122;BME280;64853;53.200;6.080;2023-01-30T02:25:42;101124.66;;;18.57;36.07
76122;BME280;64853;53.200;6.080;2023-01-30T02:36:13;101102.34;;;18.54;36.14
76122;BME280;64853;53.200;6.080;2023-01-30T02:41:16;101092.69;;;18.51;35.99
76122;BME280;64853;53.200;6.080;2023-01-30T02:46:17;101094.63;;;18.51;35.98
76122;BME280;64853;53.200;6.080;2023-01-30T02:51:13;101105.94;;;18.49;36.11
76122;BME280;64853;53.200;6.080;2023-01-30T02:56:07;101107.09;;;18.48;35.93
76122;BME280;64853;53.200;6.080;2023-01-30T03:01:16;101095.47;;;18.46;36.27
76122;BME280;64853;53.200;6.080;2023-01-30T03:06:23;101104.03;;;18.45;36.15
76122;BME280;64853;53.200;6.080;2023-01-30T03:11:21;101099.66;;;18.44;36.02
76122;BME280;64853;53.200;6.080;2023-01-30T03:16:19;101101.56;;;18.43;36.23
76122;BME280;64853;53.200;6.080;2023-01-30T03:21:12;101099.94;;;18.42;36.18
76122;BME280;64853;53.200;6.080;2023-01-30T03:26:05;101106.28;;;18.43;35.92
76122;BME280;64853;53.200;6.080;2023-01-30T03:30:58;101109.56;;;18.45;35.99
76122;BME280;64853;53.200;6.080;2023-01-30T03:35:51;101102.13;;;18.45;36.21
76122;BME280;64853;53.200;6.080;2023-01-30T03:40:43;101109.84;;;18.43;36.02
76122;BME280;64853;53.200;6.080;2023-01-30T03:45:35;101112.31;;;18.45;36.08
76122;BME280;64853;53.200;6.080;2023-01-30T03:50:27;101112.88;;;18.47;36.08
76122;BME280;64853;53.200;6.080;2023-01-30T03:55:20;101107.38;;;18.47;35.93
76122;BME280;64853;53.200;6.080;2023-01-30T04:00:13;101109.56;;;18.45;35.99
76122;BME280;64853;53.200;6.080;2023-01-30T04:05:05;101111.78;;;18.43;36.08
76122;BME280;64853;53.200;6.080;2023-01-30T04:09:56;101103.22;;;18.44;35.92
76122;BME280;64853;53.200;6.080;2023-01-30T04:14:49;101112.03;;;18.46;36.11
76122;BME280;64853;53.200;6.080;2023-01-30T04:19:40;101120.59;;;18.45;36.29
76122;BME280;64853;53.200;6.080;2023-01-30T04:24:32;101109.56;;;18.45;35.93
76122;BME280;64853;53.200;6.080;2023-01-30T04:29:23;101113.69;;;18.47;36.33
76122;BME280;64853;53.200;6.080;2023-01-30T04:34:16;101119.22;;;18.47;35.93
76122;BME280;64853;53.200;6.080;2023-01-30T04:39:08;101126.69;;;18.47;35.87
76122;BME280;64853;53.200;6.080;2023-01-30T04:43:59;101128.88;;;18.50;35.93
76122;BME280;64853;53.200;6.080;2023-01-30T04:48:51;101125.56;;;18.48;35.84
76122;BME280;64853;53.200;6.080;2023-01-30T04:53:43;101133.28;;;18.46;36.20
76122;BME280;64853;53.200;6.080;2023-01-30T04:58:35;101139.91;;;18.45;35.96
76122;BME280;64853;53.200;6.080;2023-01-30T05:03:26;101123.91;;;18.47;36.11
76122;BME280;64853;53.200;6.080;2023-01-30T05:08:18;101133.78;;;18.53;36.15
76122;BME280;64853;53.200;6.080;2023-01-30T05:13:10;101134.25;;;18.70;36.12
76122;BME280;64853;53.200;6.080;2023-01-30T05:18:02;101131.38;;;18.91;36.01
76122;BME280;64853;53.200;6.080;2023-01-30T05:22:54;101129.84;;;19.14;35.76
76122;BME280;64853;53.200;6.080;2023-01-30T05:27:45;101132.44;;;19.35;35.42
76122;BME280;64853;53.200;6.080;2023-01-30T05:32:38;101129.78;;;19.54;35.22
76122;BME280;64853;53.200;6.080;2023-01-30T05:37:29;101137.38;;;19.72;35.48
76122;BME280;64853;53.200;6.080;2023-01-30T05:42:21;101142.22;;;19.86;35.25
76122;BME280;64853;53.200;6.080;2023-01-30T05:47:12;101139.28;;;20.01;35.35
76122;BME280;64853;53.200;6.080;2023-01-30T05:52:05;101128.34;;;20.15;35.14
76122;BME280;64853;53.200;6.080;2023-01-30T05:56:57;101135.09;;;20.28;34.59
76122;BME280;64853;53.200;6.080;2023-01-30T06:01:48;101133.03;;;20.38;34.50
76122;BME280;64853;53.200;6.080;2023-01-30T06:06:40;101130.66;;;20.51;34.34
76122;BME280;64853;53.200;6.080;2023-01-30T06:11:32;101140.47;;;20.62;34.27
76122;BME280;64853;53.200;6.080;2023-01-30T06:16:24;101138.38;;;20.73;34.67
76122;BME280;64853;53.200;6.080;2023-01-30T06:21:15;101134.34;;;20.84;33.93
76122;BME280;64853;53.200;6.080;2023-01-30T06:26:07;101133.41;;;20.94;34.37
76122;BME280;64853;53.200;6.080;2023-01-30T06:31:00;101127.97;;;21.03;33.91
76122;BME280;64853;53.200;6.080;2023-01-30T06:35:52;101134.53;;;21.12;34.31
76122;BME280;64853;53.200;6.080;2023-01-30T06:40:44;101142.13;;;21.20;34.17
76122;BME280;64853;53.200;6.080;2023-01-30T06:45:36;101135.91;;;21.28;33.91
76122;BME280;64853;53.200;6.080;2023-01-30T06:50:29;101143.50;;;21.37;33.51
76122;BME280;64853;53.200;6.080;2023-01-30T06:55:22;101149.50;;;21.44;33.82
76122;BME280;64853;53.200;6.080;2023-01-30T07:00:16;101162.16;;;21.50;33.42
76122;BME280;64853;53.200;6.080;2023-01-30T07:05:09;101159.28;;;21.55;33.35
76122;BME280;64853;53.200;6.080;2023-01-30T07:10:03;101151.72;;;21.61;33.29
76122;BME280;64853;53.200;6.080;2023-01-30T07:14:55;101161.91;;;21.66;33.68
76122;BME280;64853;53.200;6.080;2023-01-30T07:19:47;101145.88;;;21.62;33.39
76122;BME280;64853;53.200;6.080;2023-01-30T07:24:39;101169.41;;;21.32;34.22
76122;BME280;64853;53.200;6.080;2023-01-30T07:29:35;101178.75;;;20.98;34.51
76122;BME280;64853;53.200;6.080;2023-01-30T07:34:26;101182.09;;;20.76;34.45
76122;BME280;64853;53.200;6.080;2023-01-30T07:39:18;101171.19;;;20.66;35.09
76122;BME280;64853;53.200;6.080;2023-01-30T07:44:10;101181.66;;;20.69;35.62
76122;BME280;64853;53.200;6.080;2023-01-30T07:49:04;101177.16;;;20.73;35.30
76122;BME280;64853;53.200;6.080;2023-01-30T07:53:55;101161.50;;;20.63;35.26
76122;BME280;64853;53.200;6.080;2023-01-30T07:58:47;101179.41;;;20.71;35.11
76122;BME280;64853;53.200;6.080;2023-01-30T08:03:38;101189.66;;;20.70;35.62
76122;BME280;64853;53.200;6.080;2023-01-30T08:08:32;101171.78;;;20.63;35.66
76122;BME280;64853;53.200;6.080;2023-01-30T08:13:23;101175.22;;;20.54;35.37
76122;BME280;64853;53.200;6.080;2023-01-30T08:18:15;101196.88;;;20.47;35.43
76122;BME280;64853;53.200;6.080;2023-01-30T08:23:06;101199.72;;;20.42;35.50
76122;BME280;64853;53.200;6.080;2023-01-30T08:27:59;101210.00;;;20.36;35.39
76122;BME280;64853;53.200;6.080;2023-01-30T08:32:50;101203.13;;;20.34;35.93
76122;BME280;64853;53.200;6.080;2023-01-30T08:37:42;101201.44;;;20.33;35.68
76122;BME280;64853;53.200;6.080;2023-01-30T08:42:33;101177.56;;;20.42;35.64
76122;BME280;64853;53.200;6.080;2023-01-30T08:47:26;101199.72;;;20.42;35.61
76122;BME280;64853;53.200;6.080;2023-01-30T08:52:18;101185.94;;;20.32;35.65
76122;BME280;64853;53.200;6.080;2023-01-30T08:57:10;101194.25;;;20.32;35.32
76122;BME280;64853;53.200;6.080;2023-01-30T09:02:01;101206.16;;;20.32;35.35
76122;BME280;64853;53.200;6.080;2023-01-30T09:06:54;101195.91;;;20.33;35.29
76122;BME280;64853;53.200;6.080;2023-01-30T09:11:45;101202.28;;;20.33;35.13
76122;BME280;64853;53.200;6.080;2023-01-30T09:16:38;101198.44;;;20.29;35.58
76122;BME280;64853;53.200;6.080;2023-01-30T09:21:29;101187.69;;;20.28;35.77
76122;BME280;64853;53.200;6.080;2023-01-30T09:26:22;101198.50;;;20.24;35.60
76122;BME280;64853;53.200;6.080;2023-01-30T09:31:13;101199.91;;;20.22;35.83
76122;BME280;64853;53.200;6.080;2023-01-30T09:36:06;101211.00;;;20.22;36.08
76122;BME280;64853;53.200;6.080;2023-01-30T09:41:19;101215.38;;;20.23;36.24
76122;BME280;64853;53.200;6.080;2023-01-30T09:46:23;101209.56;;;20.24;35.68
76122;BME280;64853;53.200;6.080;2023-01-30T09:51:36;101213.16;;;20.25;36.18
76122;BME280;64853;53.200;6.080;2023-01-30T09:56:30;101215.94;;;20.25;36.09
76122;BME280;64853;53.200;6.080;2023-01-30T10:01:28;101218.94;;;20.28;35.43
76122;BME280;64853;53.200;6.080;2023-01-30T10:06:21;101231.38;;;20.31;35.78
76122;BME280;64853;53.200;6.080;2023-01-30T10:11:23;101225.44;;;20.43;35.04
76122;BME280;64853;53.200;6.080;2023-01-30T10:16:26;101219.09;;;20.42;35.55
76122;BME280;64853;53.200;6.080;2023-01-30T10:21:24;101291.69;;;20.34;35.64
76122;BME280;64853;53.200;6.080;2023-01-30T10:26:20;101295.91;;;20.21;35.36
76122;BME280;64853;53.200;6.080;2023-01-30T10:31:14;101309.00;;;20.15;35.84
76122;BME280;64853;53.200;6.080;2023-01-30T10:36:10;101299.88;;;20.15;35.39
76122;BME280;64853;53.200;6.080;2023-01-30T10:41:09;101299.03;;;20.14;35.74
76122;BME280;64853;53.200;6.080;2023-01-30T10:46:13;101293.47;;;20.19;35.38
76122;BME280;64853;53.200;6.080;2023-01-30T10:51:17;101300.34;;;20.22;35.33
76122;BME280;64853;53.200;6.080;2023-01-30T10:56:14;101311.94;;;20.24;35.83
76122;BME280;64853;53.200;6.080;2023-01-30T11:01:14;101307.47;;;20.28;35.68
76122;BME280;64853;53.200;6.080;2023-01-30T11:06:12;101308.81;;;20.36;36.19
76122;BME280;64853;53.200;6.080;2023-01-30T11:16:14;101333.41;;;20.67;35.83
